createdAt,value
2019-03-03T00:01:41.848Z,5.77
2019-03-03T00:04:11.558Z,5.80
2019-03-03T00:06:41.435Z,5.43
2019-03-03T00:09:11.817Z,5.20
2019-03-03T00:11:42.573Z,5.23
2019-03-03T00:14:12.352Z,4.57
2019-03-03T00:16:42.187Z,4.73
2019-03-03T00:19:11.933Z,5.50
2019-03-03T00:21:41.684Z,5.53
2019-03-03T00:24:11.728Z,4.30
2019-03-03T00:26:41.452Z,4.87
2019-03-03T00:29:11.590Z,5.00
2019-03-03T00:31:41.824Z,5.13
2019-03-03T00:34:11.655Z,6.10
2019-03-03T00:36:59.578Z,6.10
2019-03-03T00:39:38.815Z,6.40
2019-03-03T00:42:30.317Z,6.30
2019-03-03T00:45:12.853Z,5.87
2019-03-03T00:48:05.463Z,6.17
2019-03-03T00:50:41.558Z,6.77
2019-03-03T00:53:17.216Z,6.90
2019-03-03T00:56:05.910Z,7.20
2019-03-03T00:58:50.317Z,5.83
2019-03-03T01:01:39.105Z,6.97
2019-03-03T01:04:17.689Z,6.07
2019-03-03T01:06:56.550Z,6.40
2019-03-03T01:09:41.778Z,6.30
2019-03-03T01:12:33.592Z,6.20
2019-03-03T01:15:13.194Z,6.07
2019-03-03T01:17:51.661Z,6.57
2019-03-03T01:20:26.942Z,6.40
2019-03-03T01:23:05.999Z,6.57
2019-03-03T01:25:35.750Z,5.60
2019-03-03T01:28:05.507Z,6.00
2019-03-03T01:30:35.216Z,6.30
2019-03-03T01:33:05.044Z,5.87
2019-03-03T01:35:34.743Z,6.00
2019-03-03T01:38:05.257Z,5.92
2019-03-03T01:40:35.094Z,6.37
2019-03-03T01:43:05.422Z,4.85
2019-03-03T01:45:35.803Z,5.17
2019-03-03T01:48:05.540Z,5.07
2019-03-03T01:50:35.238Z,4.50
2019-03-03T01:53:05.063Z,5.00
2019-03-03T01:55:34.896Z,4.90
2019-03-03T01:58:05.018Z,5.27
2019-03-03T02:00:34.787Z,5.00
2019-03-03T02:03:06.056Z,5.20
2019-03-03T02:05:35.751Z,4.83
2019-03-03T02:08:05.645Z,4.90
2019-03-03T02:10:35.323Z,4.70
2019-03-03T02:13:05.168Z,4.67
2019-03-03T02:15:35.026Z,4.73
2019-03-03T02:18:05.357Z,4.72
2019-03-03T02:20:35.024Z,4.97
2019-03-03T02:23:05.190Z,4.60
2019-03-03T02:25:34.926Z,4.80
2019-03-03T02:28:05.967Z,4.20
2019-03-03T02:30:35.815Z,5.07
2019-03-03T02:33:05.830Z,4.27
2019-03-03T02:35:35.505Z,4.10
2019-03-03T02:38:05.293Z,4.50
2019-03-03T02:40:35.048Z,4.10
2019-03-03T02:43:05.432Z,4.50
2019-03-03T02:45:35.111Z,4.27
2019-03-03T02:48:04.910Z,5.13
2019-03-03T02:50:34.767Z,5.30
2019-03-03T02:53:05.065Z,4.50
2019-03-03T02:55:34.918Z,4.73
2019-03-03T02:58:05.638Z,5.00
2019-03-03T03:00:37.801Z,4.80
2019-03-03T03:03:10.434Z,4.50
2019-03-03T03:05:53.083Z,4.60
2019-03-03T03:11:12.933Z,4.62
2019-03-03T03:13:49.266Z,4.27
2019-03-03T03:16:33.639Z,5.33
2019-03-03T03:19:37.237Z,5.50
2019-03-03T03:22:23.331Z,4.73
2019-03-03T03:25:04.016Z,4.57
2019-03-03T03:27:46.616Z,4.20
2019-03-03T03:30:28.287Z,4.60
2019-03-03T03:33:29.093Z,4.27
2019-03-03T03:36:03.168Z,4.07
2019-03-03T03:38:38.261Z,4.37
2019-03-03T03:41:15.964Z,4.53
2019-03-03T03:44:23.128Z,4.50
2019-03-03T03:47:17.605Z,5.63
2019-03-03T03:50:11.901Z,4.40
2019-03-03T03:52:59.064Z,5.17
2019-03-03T03:55:38.306Z,4.78
2019-03-03T03:58:25.746Z,4.73
2019-03-03T04:01:13.187Z,5.00
2019-03-03T04:04:07.888Z,4.90
2019-03-03T04:06:55.677Z,5.93
2019-03-03T04:09:44.121Z,4.93
2019-03-03T04:12:30.676Z,5.80
2019-03-03T04:15:20.632Z,5.90
2019-03-03T04:18:01.457Z,5.60
2019-03-03T04:20:50.214Z,6.53
2019-03-03T04:23:50.844Z,5.87
2019-03-03T04:26:55.056Z,5.90
2019-03-03T04:29:41.296Z,6.62
2019-03-03T04:32:21.999Z,5.73
2019-03-03T04:35:00.517Z,6.07
2019-03-03T04:37:36.803Z,6.27
2019-03-03T04:40:20.479Z,6.50
2019-03-03T04:42:58.157Z,6.27
2019-03-03T04:45:35.577Z,6.40
2019-03-03T04:48:16.890Z,6.53
2019-03-03T04:51:04.245Z,7.50
2019-03-03T04:54:02.198Z,6.40
2019-03-03T04:56:56.793Z,6.83
2019-03-03T04:59:44.273Z,6.60
2019-03-03T05:02:41.993Z,7.27
2019-03-03T05:05:42.926Z,7.00
2019-03-03T05:08:23.234Z,8.03
2019-03-03T05:11:18.206Z,7.20
2019-03-03T05:13:55.305Z,7.00
2019-03-03T05:16:42.521Z,6.63
2019-03-03T05:19:25.950Z,7.07
2019-03-03T05:21:55.752Z,7.43
2019-03-03T05:24:33.920Z,7.90
2019-03-03T05:26:56.821Z,7.83
2019-03-03T05:29:26.505Z,7.37
2019-03-03T05:31:56.225Z,8.10
2019-03-03T05:34:26.200Z,8.97
2019-03-03T05:36:55.886Z,7.23
2019-03-03T05:39:25.575Z,8.20
2019-03-03T05:41:55.776Z,8.47
2019-03-03T05:44:25.470Z,8.50
2019-03-03T05:46:55.157Z,8.67
2019-03-03T05:49:25.089Z,9.67
2019-03-03T05:51:54.838Z,8.60
2019-03-03T05:54:24.568Z,9.77
2019-03-03T05:56:55.236Z,9.53
2019-03-03T05:59:24.929Z,9.60
2019-03-03T06:01:54.949Z,9.60
2019-03-03T06:04:24.797Z,8.97
2019-03-03T06:06:54.519Z,10.03
2019-03-03T06:09:24.194Z,10.00
2019-03-03T06:11:53.873Z,9.60
2019-03-03T06:14:23.561Z,9.20
2019-03-03T06:16:53.510Z,9.70
2019-03-03T06:19:23.206Z,10.37
2019-03-03T06:21:52.906Z,9.27
2019-03-03T06:24:22.588Z,9.35
2019-03-03T06:26:52.438Z,10.43
2019-03-03T06:29:22.111Z,9.77
2019-03-03T06:31:51.834Z,9.90
2019-03-03T06:34:21.496Z,8.57
2019-03-03T06:36:51.305Z,9.07
2019-03-03T06:39:21.245Z,9.93
2019-03-03T06:41:50.942Z,9.53
2019-03-03T06:44:20.842Z,9.57
2019-03-03T06:46:50.640Z,9.93
2019-03-03T06:49:20.324Z,9.40
2019-03-03T06:51:50.016Z,9.80
2019-03-03T06:54:19.941Z,9.60
2019-03-03T06:56:49.616Z,10.53
2019-03-03T06:59:19.597Z,9.38
2019-03-03T07:01:49.275Z,10.63
2019-03-03T07:04:19.005Z,10.63
2019-03-03T07:06:49.009Z,10.63
2019-03-03T07:09:18.691Z,11.63
2019-03-03T07:11:48.616Z,10.83
2019-03-03T07:14:18.542Z,10.80
2019-03-03T07:16:48.322Z,10.83
2019-03-03T07:19:18.133Z,9.77
2019-03-03T07:21:47.801Z,10.23
2019-03-03T07:24:17.492Z,10.50
2019-03-03T07:26:47.248Z,10.90
2019-03-03T07:29:16.919Z,11.15
2019-03-03T07:31:46.595Z,11.13
2019-03-03T07:34:16.287Z,10.82
2019-03-03T07:36:46.249Z,11.50
2019-03-03T07:39:19.662Z,11.67
2019-03-03T07:41:49.442Z,10.37
2019-03-03T07:44:19.210Z,10.35
2019-03-03T07:46:48.923Z,10.13
2019-03-03T07:49:18.591Z,9.33
2019-03-03T07:51:48.336Z,9.93
2019-03-03T07:54:18.730Z,10.57
2019-03-03T07:56:48.414Z,10.47
2019-03-03T07:59:18.095Z,10.13
2019-03-03T08:01:48.197Z,9.60
2019-03-03T08:04:17.868Z,11.53
2019-03-03T08:06:47.655Z,9.93
2019-03-03T08:09:17.930Z,10.95
2019-03-03T08:11:47.603Z,10.97
2019-03-03T08:14:17.270Z,11.80
2019-03-03T08:16:46.959Z,11.00
2019-03-03T08:19:16.637Z,11.13
2019-03-03T08:21:46.332Z,10.87
2019-03-03T08:24:16.094Z,11.37
2019-03-03T08:26:46.054Z,9.50
2019-03-03T08:29:15.750Z,10.85
2019-03-03T08:31:45.434Z,9.47
2019-03-03T08:34:15.449Z,11.10
2019-03-03T08:36:46.214Z,10.70
2019-03-03T08:39:16.050Z,11.30
2019-03-03T08:41:49.303Z,11.40
2019-03-03T08:44:50.425Z,10.23
2019-03-03T08:47:39.045Z,10.23
2019-03-03T08:50:13.930Z,10.63
2019-03-03T08:53:08.443Z,11.27
2019-03-03T08:55:58.675Z,10.40
2019-03-03T08:58:33.631Z,10.17
2019-03-03T09:01:21.384Z,9.77
2019-03-03T09:03:56.447Z,10.20
2019-03-03T09:06:38.227Z,10.47
2019-03-03T09:09:17.348Z,8.60
2019-03-03T09:11:56.069Z,9.37
2019-03-03T09:14:41.448Z,8.97
2019-03-03T09:17:36.435Z,8.43
2019-03-03T09:20:16.296Z,8.70
2019-03-03T09:23:03.520Z,8.47
2019-03-03T09:25:51.364Z,9.03
2019-03-03T09:28:27.174Z,8.93
2019-03-03T09:31:14.677Z,8.40
2019-03-03T09:34:00.077Z,8.13
2019-03-03T09:36:40.748Z,7.33
2019-03-03T09:39:27.853Z,8.30
2019-03-03T09:42:15.085Z,6.97
2019-03-03T09:45:00.702Z,7.33
2019-03-03T09:47:47.805Z,7.47
2019-03-03T09:50:37.027Z,6.90
2019-03-03T09:53:21.702Z,7.97
2019-03-03T09:56:12.708Z,6.73
2019-03-03T09:59:10.682Z,6.90
2019-03-03T10:02:11.612Z,7.50
2019-03-03T10:04:53.761Z,6.43
2019-03-03T10:07:42.294Z,7.10
2019-03-03T10:10:36.743Z,6.65
2019-03-03T10:13:16.690Z,5.83
2019-03-03T10:15:51.319Z,6.43
2019-03-03T10:18:30.047Z,6.13
2019-03-03T10:21:09.142Z,5.77
2019-03-03T10:24:01.114Z,6.20
2019-03-03T10:26:38.385Z,5.67
2019-03-03T10:29:33.242Z,5.43
2019-03-03T10:32:27.705Z,5.57
2019-03-03T10:35:15.749Z,6.90
2019-03-03T10:38:00.844Z,5.90
2019-03-03T10:40:58.763Z,6.90
2019-03-03T10:43:50.225Z,6.40
2019-03-03T10:46:30.457Z,6.20
2019-03-03T10:49:05.593Z,6.03
2019-03-03T10:51:40.922Z,6.73
2019-03-03T10:54:24.860Z,6.63
2019-03-03T10:57:17.468Z,4.97
2019-03-03T11:00:19.342Z,6.70
2019-03-03T11:03:02.651Z,6.03
2019-03-03T11:05:50.763Z,6.57
2019-03-03T11:08:40.253Z,6.20
2019-03-03T11:11:27.659Z,5.53
2019-03-03T11:14:20.348Z,6.40
2019-03-03T11:17:07.791Z,4.97
2019-03-03T11:19:44.975Z,5.77
2019-03-03T11:22:21.720Z,5.60
2019-03-03T11:25:10.146Z,6.17
2019-03-03T11:27:58.899Z,5.50
2019-03-03T11:30:40.285Z,5.50
2019-03-03T11:33:41.160Z,5.30
2019-03-03T11:36:25.478Z,5.27
2019-03-03T11:39:31.942Z,6.07
2019-03-03T11:42:19.825Z,6.53
2019-03-03T11:45:02.612Z,5.90
2019-03-03T11:47:52.239Z,5.33
2019-03-03T11:50:28.448Z,5.63
2019-03-03T11:53:13.752Z,6.47
2019-03-03T11:55:52.840Z,6.37
2019-03-03T11:58:32.479Z,5.87
2019-03-03T12:01:20.173Z,6.10
2019-03-03T12:03:59.158Z,5.57
2019-03-03T12:06:54.091Z,5.23
2019-03-03T12:09:32.381Z,5.93
2019-03-03T12:12:25.755Z,6.07
2019-03-03T12:15:06.799Z,5.53
2019-03-03T12:17:43.636Z,6.13
2019-03-03T12:20:25.414Z,5.75
2019-03-03T12:23:05.813Z,5.47
2019-03-03T12:25:44.823Z,6.37
2019-03-03T12:28:32.085Z,6.37
2019-03-03T12:31:15.039Z,5.80
2019-03-03T12:34:04.860Z,6.37
2019-03-03T12:36:54.278Z,5.20
2019-03-03T12:39:30.757Z,6.00
2019-03-03T12:42:10.670Z,5.60
2019-03-03T12:44:49.164Z,6.20
2019-03-03T12:47:30.147Z,6.17
2019-03-03T12:50:17.505Z,5.90
2019-03-03T12:52:59.192Z,6.40
2019-03-03T12:55:53.956Z,6.17
2019-03-03T12:58:51.635Z,5.67
2019-03-03T13:01:34.876Z,6.17
2019-03-03T13:04:21.500Z,5.78
2019-03-03T13:07:25.132Z,6.10
2019-03-03T13:10:15.757Z,6.03
2019-03-03T13:12:51.297Z,5.53
2019-03-03T13:15:43.785Z,5.13
2019-03-03T13:18:21.834Z,5.43
2019-03-03T13:21:00.975Z,6.13
2019-03-03T13:23:45.807Z,6.47
2019-03-03T13:26:24.718Z,5.80
2019-03-03T13:29:12.437Z,6.27
2019-03-03T13:32:02.079Z,6.17
2019-03-03T13:34:39.738Z,5.47
2019-03-03T13:37:28.492Z,5.97
2019-03-03T13:40:20.468Z,5.07
2019-03-03T13:42:59.416Z,5.40
2019-03-03T13:45:32.281Z,5.47
2019-03-03T13:48:02.178Z,5.40
2019-03-03T13:50:32.177Z,6.07
2019-03-03T13:53:02.072Z,4.73
2019-03-03T13:55:32.713Z,5.77
2019-03-03T13:58:02.383Z,5.90
2019-03-03T14:00:32.325Z,4.40
2019-03-03T14:03:02.574Z,5.50
2019-03-03T14:05:32.474Z,5.03
2019-03-03T14:08:02.419Z,5.70
2019-03-03T14:10:33.263Z,5.25
2019-03-03T14:13:02.999Z,6.37
2019-03-03T14:15:32.770Z,5.33
2019-03-03T14:18:02.522Z,5.23
2019-03-03T14:20:32.255Z,6.63
2019-03-03T14:23:01.965Z,5.80
2019-03-03T14:25:31.709Z,6.07
2019-03-03T14:28:01.463Z,6.13
2019-03-03T14:30:31.351Z,5.93
2019-03-03T14:33:01.125Z,5.87
2019-03-03T14:35:30.863Z,7.10
2019-03-03T14:38:00.864Z,5.93
2019-03-03T14:40:31.445Z,6.77
2019-03-03T14:43:01.193Z,6.25
2019-03-03T14:45:30.871Z,7.17
2019-03-03T14:48:00.697Z,6.63
2019-03-03T14:50:30.514Z,6.70
2019-03-03T14:53:00.265Z,7.07
2019-03-03T14:55:30.132Z,6.70
2019-03-03T14:57:59.952Z,7.07
2019-03-03T15:00:31.405Z,7.60
2019-03-03T15:03:02.730Z,7.57
2019-03-03T15:05:32.642Z,7.67
2019-03-03T15:08:02.998Z,8.27
2019-03-03T15:10:32.864Z,8.77
2019-03-03T15:13:02.656Z,8.00
2019-03-03T15:15:33.350Z,8.40
2019-03-03T15:18:03.219Z,9.03
2019-03-03T15:20:33.446Z,8.37
2019-03-03T15:23:03.325Z,9.10
2019-03-03T15:25:33.159Z,8.98
2019-03-03T15:28:02.969Z,9.37
2019-03-03T15:30:32.979Z,8.63
2019-03-03T15:33:02.724Z,9.90
2019-03-03T15:35:32.589Z,9.10
2019-03-03T15:38:02.506Z,8.53
2019-03-03T15:40:32.334Z,10.00
2019-03-03T15:43:02.088Z,9.20
2019-03-03T15:45:31.794Z,10.50
2019-03-03T15:48:02.180Z,9.07
2019-03-03T15:50:32.042Z,10.17
2019-03-03T15:53:01.756Z,10.47
2019-03-03T15:55:31.769Z,9.53
2019-03-03T15:58:01.591Z,9.53
2019-03-03T16:00:31.980Z,9.60
2019-03-03T16:03:01.653Z,9.33
2019-03-03T16:05:31.419Z,10.47
2019-03-03T16:08:01.359Z,9.60
2019-03-03T16:10:31.112Z,9.30
2019-03-03T16:13:01.045Z,9.13
2019-03-03T16:15:30.713Z,9.07
2019-03-03T16:18:00.396Z,8.87
2019-03-03T16:20:30.171Z,9.60
2019-03-03T16:22:59.868Z,9.27
2019-03-03T16:25:29.631Z,10.13
2019-03-03T16:27:59.581Z,8.67
2019-03-03T16:30:29.331Z,8.50
2019-03-03T16:32:59.092Z,8.00
2019-03-03T16:35:28.758Z,8.37
2019-03-03T16:37:58.443Z,9.30
2019-03-03T16:40:28.270Z,9.50
2019-03-03T16:42:58.376Z,8.80
2019-03-03T16:45:28.042Z,9.00
2019-03-03T16:47:57.713Z,8.77
2019-03-03T16:50:28.433Z,9.23
2019-03-03T16:52:58.120Z,8.28
2019-03-03T16:55:27.810Z,9.30
2019-03-03T16:57:57.554Z,7.90
2019-03-03T17:00:27.357Z,8.40
2019-03-03T17:02:59.160Z,7.90
2019-03-03T17:05:29.050Z,8.10
2019-03-03T17:07:58.792Z,8.80
2019-03-03T17:10:28.546Z,7.40
2019-03-03T17:12:58.509Z,8.53
2019-03-03T17:15:28.208Z,8.93
2019-03-03T17:17:58.063Z,7.40
2019-03-03T17:20:28.054Z,8.13
2019-03-03T17:22:57.822Z,7.60
2019-03-03T17:28:05.679Z,7.47
2019-03-03T17:30:35.443Z,6.60
2019-03-03T17:33:05.436Z,7.42
2019-03-03T17:35:35.479Z,7.50
2019-03-03T17:38:05.227Z,7.80
2019-03-03T17:40:35.023Z,6.90
2019-03-03T17:43:05.200Z,9.15
2019-03-03T17:45:34.875Z,8.47
2019-03-03T17:48:04.885Z,7.67
2019-03-03T17:50:34.563Z,6.83
2019-03-03T17:53:04.972Z,8.50
2019-03-03T17:55:34.798Z,6.60
2019-03-03T17:58:05.306Z,7.37
2019-03-03T18:00:36.544Z,7.27
2019-03-03T18:03:06.223Z,9.37
2019-03-03T18:05:35.916Z,7.10
2019-03-03T18:08:05.614Z,7.63
2019-03-03T18:10:35.366Z,7.50
2019-03-03T18:13:05.788Z,7.20
2019-03-03T18:15:35.803Z,6.63
2019-03-03T18:18:05.539Z,7.43
2019-03-03T18:20:35.228Z,6.07
2019-03-03T18:23:04.990Z,6.37
2019-03-03T18:25:34.667Z,6.10
2019-03-03T18:28:05.289Z,7.08
2019-03-03T18:30:35.768Z,7.90
2019-03-03T18:33:05.579Z,6.77
2019-03-03T18:35:35.251Z,6.85
2019-03-03T18:38:05.533Z,6.62
2019-03-03T18:40:35.336Z,6.95
2019-03-03T18:43:05.097Z,6.90
2019-03-03T18:45:34.784Z,6.17
2019-03-03T18:48:05.746Z,6.67
2019-03-03T18:50:35.581Z,6.23
2019-03-03T18:53:05.583Z,6.23
2019-03-03T18:55:35.407Z,6.70
2019-03-03T18:58:06.365Z,6.17
2019-03-03T19:00:36.579Z,5.80
2019-03-03T19:03:07.025Z,6.03
2019-03-03T19:05:37.765Z,6.50
2019-03-03T19:08:07.436Z,6.47
2019-03-03T19:10:37.460Z,6.53
2019-03-03T19:13:07.359Z,7.03
2019-03-03T19:15:37.205Z,6.33
2019-03-03T19:18:06.944Z,6.85
2019-03-03T19:20:36.723Z,6.17
2019-03-03T19:23:06.591Z,6.30
2019-03-03T19:25:36.346Z,6.30
2019-03-03T19:28:06.259Z,6.43
2019-03-03T19:30:35.939Z,6.33
2019-03-03T19:33:17.957Z,6.53
2019-03-03T19:35:47.701Z,6.27
2019-03-03T19:38:17.441Z,6.40
2019-03-03T19:40:47.236Z,6.60
2019-03-03T19:43:17.237Z,6.63
2019-03-03T19:45:46.994Z,7.30
2019-03-03T19:48:17.027Z,6.43
2019-03-03T19:50:46.991Z,7.07
2019-03-03T19:53:16.759Z,7.03
2019-03-03T19:55:46.828Z,6.70
2019-03-03T19:58:16.650Z,6.00
2019-03-03T20:00:46.504Z,7.33
2019-03-03T20:03:16.341Z,6.60
2019-03-03T20:05:46.071Z,7.25
2019-03-03T20:08:16.720Z,6.80
2019-03-03T20:10:46.484Z,7.12
2019-03-03T20:13:16.318Z,6.55
2019-03-03T20:15:45.984Z,6.03
2019-03-03T20:18:15.808Z,6.80
2019-03-03T20:20:45.661Z,8.53
2019-03-03T20:23:15.321Z,6.27
2019-03-03T20:25:45.015Z,7.40
2019-03-03T20:28:14.692Z,6.07
2019-03-03T20:30:45.494Z,7.57
2019-03-03T20:33:15.305Z,7.40
2019-03-03T20:35:45.254Z,7.13
2019-03-03T20:38:14.917Z,6.57
2019-03-03T20:40:45.548Z,6.43
2019-03-03T20:43:15.238Z,6.75
2019-03-03T20:45:45.265Z,6.07
2019-03-03T20:48:15.029Z,7.53
2019-03-03T20:50:44.705Z,6.62
2019-03-03T20:53:14.645Z,5.67
2019-03-03T20:55:44.321Z,6.73
2019-03-03T20:58:13.999Z,7.10
2019-03-03T21:00:43.941Z,6.27
2019-03-03T21:03:13.602Z,6.20
2019-03-03T21:05:43.268Z,7.03
2019-03-03T21:08:13.004Z,6.45
2019-03-03T21:10:42.619Z,6.53
2019-03-03T21:13:12.277Z,6.10
2019-03-03T21:15:42.018Z,6.20
2019-03-03T21:18:11.694Z,6.40
2019-03-03T21:20:41.388Z,6.47
2019-03-03T21:23:11.324Z,6.80
2019-03-03T21:25:41.024Z,7.43
2019-03-03T21:28:10.766Z,6.05
2019-03-03T21:30:40.433Z,6.50
2019-03-03T21:33:10.372Z,5.78
2019-03-03T21:35:40.086Z,6.17
2019-03-03T21:38:10.003Z,6.37
2019-03-03T21:40:39.694Z,6.00
2019-03-03T21:43:09.400Z,6.30
2019-03-03T21:45:39.147Z,5.77
2019-03-03T21:48:08.888Z,6.20
2019-03-03T21:50:38.563Z,5.80
2019-03-03T21:53:08.372Z,6.37
2019-03-03T21:55:38.029Z,6.90
2019-03-03T21:58:08.058Z,6.93
2019-03-03T22:00:38.303Z,6.78
2019-03-03T22:03:09.318Z,6.80
2019-03-03T22:05:38.993Z,6.67
2019-03-03T22:08:08.655Z,5.67
2019-03-03T22:10:38.591Z,6.60
2019-03-03T22:13:12.509Z,5.70
2019-03-03T22:15:42.371Z,6.70
2019-03-03T22:18:12.038Z,5.90
2019-03-03T22:20:41.715Z,5.70
2019-03-03T22:23:11.391Z,5.40
2019-03-03T22:25:41.143Z,5.43
2019-03-03T22:28:13.161Z,5.43
2019-03-03T22:30:42.909Z,5.77
2019-03-03T22:33:12.586Z,6.70
2019-03-03T22:35:42.268Z,6.30
2019-03-03T22:38:11.931Z,6.25
2019-03-03T22:40:41.602Z,5.97
2019-03-03T22:43:11.281Z,6.43
2019-03-03T22:45:40.942Z,5.17
2019-03-03T22:48:10.625Z,6.23
2019-03-03T22:50:40.646Z,5.60
2019-03-03T22:53:10.744Z,6.20
2019-03-03T22:55:40.625Z,6.17
2019-03-03T22:58:10.248Z,5.47
2019-03-03T23:01:18.738Z,6.10
2019-03-03T23:04:07.490Z,5.93
2019-03-03T23:06:51.410Z,6.07
2019-03-03T23:09:52.413Z,6.00
2019-03-03T23:12:39.367Z,6.10
2019-03-03T23:15:27.535Z,6.90
2019-03-03T23:18:53.368Z,5.97
2019-03-03T23:22:01.454Z,5.83
2019-03-03T23:24:59.350Z,5.50
2019-03-03T23:27:29.029Z,5.97
2019-03-03T23:29:58.687Z,5.97
2019-03-03T23:32:28.589Z,5.70
2019-03-03T23:34:58.337Z,4.83
2019-03-03T23:37:28.010Z,5.53
2019-03-03T23:39:57.921Z,5.63
2019-03-03T23:42:27.873Z,5.20
2019-03-03T23:44:57.532Z,5.67
2019-03-03T23:47:27.202Z,6.33
2019-03-03T23:49:57.123Z,5.20
2019-03-03T23:52:26.852Z,5.20
2019-03-03T23:54:57.487Z,5.00
2019-03-03T23:57:27.448Z,5.70
2019-03-03T23:59:57.096Z,5.03
